Time;durP1;ratioP1;P1;durP2;ratioP2;P2;SDS_P1;SDS_P2;PMS_P1;PMS_P2;Temp;Humidity;BMP_temperature;BMP_pressure;BME280_temperature;BME280_humidity;BME280_pressure;Samples;Min_cycle;Max_cycle;Signal;HPM_P1;HPM_P2
2024/03/03 00:00:12;;;;;;;1.35;0.90;;;;;;;7.80;84.22;100153.44;15763812;28;19924;-46
2024/03/03 00:07:46;;;;;;;0.70;0.47;;;;;;;7.89;84.02;100143.38;15761686;28;20062;-48
2024/03/03 00:15:20;;;;;;;0.47;0.47;;;;;;;7.74;85.30;100148.06;15788315;28;20037;-45
2024/03/03 00:22:55;;;;;;;2.22;0.93;;;;;;;7.58;87.13;100139.47;15791949;28;20040;-46
2024/03/03 00:30:29;;;;;;;0.75;0.75;;;;;;;7.60;88.50;100133.91;15787064;28;20464;-45
2024/03/03 00:38:04;;;;;;;1.55;1.45;;;;;;;7.79;88.24;100127.75;15759293;28;20045;-48
2024/03/03 00:45:38;;;;;;;3.22;1.67;;;;;;;8.00;86.96;100120.53;15784132;28;20032;-52
2024/03/03 00:53:12;;;;;;;;;;;;;;;8.45;85.04;100126.81;15748647;28;20052;-47
2024/03/03 01:00:46;;;;;;;2.83;2.28;;;;;;;8.49;84.24;100100.47;15739658;28;20446;-52
2024/03/03 01:08:23;;;;;;;0.00;0.00;;;;;;;8.76;81.91;100111.84;15771703;28;20036;-46
2024/03/03 01:15:57;;;;;;;0.15;0.15;;;;;;;8.37;84.74;100116.34;15783722;28;20035;-52
2024/03/03 01:23:32;;;;;;;0.82;0.75;;;;;;;8.35;83.88;100129.09;15783857;28;20503;-49
2024/03/03 01:31:06;;;;;;;6.07;3.42;;;;;;;8.37;84.37;100127.84;15799266;28;20066;-50
2024/03/03 01:38:43;;;;;;;3.05;2.75;;;;;;;8.39;84.02;100130.31;15779984;28;20357;-47
2024/03/03 01:46:17;;;;;;;8.95;2.25;;;;;;;8.09;85.81;100127.28;15761171;28;20048;-44
2024/03/03 01:53:53;;;;;;;0.88;0.55;;;;;;;7.67;87.57;100132.06;15797692;28;20050;-47
2024/03/03 02:01:30;;;;;;;1.67;1.15;;;;;;;8.03;85.81;100128.94;15786075;28;20047;-48
2024/03/03 02:09:06;;;;;;;2.00;1.25;;;;;;;8.17;84.56;100121.72;15768437;28;20040;-48
2024/03/03 02:16:43;;;;;;;1.70;1.23;;;;;;;7.68;87.29;100115.81;15747766;28;20044;-48
2024/03/03 02:24:18;;;;;;;2.13;1.88;;;;;;;7.64;87.58;100103.09;15715979;28;20478;-47
2024/03/03 02:31:52;;;;;;;4.97;1.25;;;;;;;7.41;89.01;100107.03;15734658;28;20067;-49
2024/03/03 02:39:27;;;;;;;1.40;1.27;;;;;;;7.37;89.99;100096.94;15715286;28;20175;-47
2024/03/03 02:47:00;;;;;;;0.60;0.60;;;;;;;7.50;89.78;100102.28;15715142;28;20039;-51
2024/03/03 02:54:35;;;;;;;2.13;1.33;;;;;;;6.82;91.34;100096.25;15698353;28;20061;-48
2024/03/03 03:02:08;;;;;;;0.60;0.60;;;;;;;6.80;92.00;100087.63;15731954;28;20047;-48
2024/03/03 03:09:46;;;;;;;1.23;0.90;;;;;;;6.81;91.86;100092.78;15713529;28;20040;-49
2024/03/03 03:17:20;;;;;;;1.60;1.50;;;;;;;6.63;92.37;100079.19;15739159;28;20450;-51
2024/03/03 03:24:55;;;;;;;1.90;1.73;;;;;;;6.63;92.91;100082.66;15775697;28;20417;-45
2024/03/03 03:32:28;;;;;;;1.90;1.77;;;;;;;6.73;92.87;100084.13;15776614;28;20067;-50
2024/03/03 03:40:09;;;;;;;0.82;0.82;;;;;;;6.46;93.50;100080.53;15792488;28;20089;-47
2024/03/03 03:47:43;;;;;;;1.83;1.70;;;;;;;6.47;94.49;100079.53;15780151;28;20044;-52
2024/03/03 03:55:19;;;;;;;3.67;2.35;;;;;;;6.56;93.87;100080.97;15765877;28;20044;-51
2024/03/03 04:02:52;;;;;;;0.60;0.60;;;;;;;6.54;94.28;100069.72;15758041;28;20040;-47
2024/03/03 04:10:29;;;;;;;4.30;2.70;;;;;;;6.79;93.63;100069.97;15791220;28;20051;-52
2024/03/03 04:18:03;;;;;;;0.75;0.75;;;;;;;6.81;92.92;100070.63;15757951;28;20059;-49
2024/03/03 04:25:39;;;;;;;0.52;0.52;;;;;;;7.24;90.45;100071.06;15729056;28;20043;-51
2024/03/03 04:33:13;;;;;;;1.15;1.10;;;;;;;7.06;91.53;100079.66;15729031;28;20087;-49
2024/03/03 04:40:48;;;;;;;2.08;1.05;;;;;;;7.07;92.18;100069.81;15731702;28;20045;-52
2024/03/03 04:48:26;;;;;;;4.30;2.60;;;;;;;6.96;92.23;100063.25;15719743;28;20460;-49
2024/03/03 04:56:01;;;;;;;;;;;;;;;6.87;93.90;100062.59;15740022;28;20537;-47
2024/03/03 05:03:34;;;;;;;3.10;2.90;;;;;;;7.05;92.88;100061.22;15731498;28;19920;-49
2024/03/03 05:11:10;;;;;;;0.40;0.40;;;;;;;7.13;92.33;100067.16;15738787;28;20072;-51
2024/03/03 05:18:44;;;;;;;2.58;1.58;;;;;;;7.33;91.86;100072.50;15775891;28;20040;-49
2024/03/03 05:26:19;;;;;;;5.18;2.08;;;;;;;7.15;93.40;100057.09;15789142;28;20144;-50
2024/03/03 05:33:53;;;;;;;1.48;1.45;;;;;;;7.36;91.89;100066.75;15773648;28;20042;-52
2024/03/03 05:41:29;;;;;;;1.23;1.10;;;;;;;7.20;91.80;100074.34;15798117;28;20040;-50
2024/03/03 05:49:05;;;;;;;5.15;2.42;;;;;;;7.30;92.09;100080.09;15800099;28;20050;-50
2024/03/03 05:56:40;;;;;;;2.92;1.90;;;;;;;7.05;94.11;100088.72;15799582;28;20036;-49
2024/03/03 06:04:16;;;;;;;3.15;2.53;;;;;;;7.63;91.64;100083.56;15780506;28;20237;-47
2024/03/03 06:11:51;;;;;;;4.28;3.90;;;;;;;7.89;90.42;100088.06;15798817;28;20106;-48
2024/03/03 06:19:27;;;;;;;5.22;2.35;;;;;;;7.47;93.03;100093.88;15726629;28;20142;-47
2024/03/03 06:27:05;;;;;;;0.77;0.77;;;;;;;7.66;93.29;100095.72;15733550;28;20493;-51
2024/03/03 06:34:39;;;;;;;2.00;1.80;;;;;;;7.90;92.79;100089.72;15735531;28;20044;-50
2024/03/03 06:42:14;;;;;;;2.78;1.50;;;;;;;8.15;92.39;100102.38;15776451;28;20511;-53
2024/03/03 06:49:52;;;;;;;1.00;1.00;;;;;;;8.23;91.51;100096.00;15751019;28;20047;-49
2024/03/03 06:57:27;;;;;;;4.93;3.03;;;;;;;8.31;91.88;100099.25;15740865;28;20047;-49
2024/03/03 07:05:01;;;;;;;2.42;2.17;;;;;;;8.39;91.35;100099.06;15731599;28;20052;-49
2024/03/03 07:12:36;;;;;;;2.30;2.17;;;;;;;8.61;91.56;100104.09;15733172;28;20036;-49
2024/03/03 07:20:12;;;;;;;4.90;3.97;;;;;;;9.10;90.00;100102.59;15782626;28;20484;-46
2024/03/03 07:27:50;;;;;;;2.00;1.30;;;;;;;10.19;85.23;100107.41;15794760;28;20071;-49
2024/03/03 07:35:30;;;;;;;2.10;1.95;;;;;;;9.84;85.63;100104.47;15791362;28;20537;-48
2024/03/03 07:43:05;;;;;;;5.20;2.42;;;;;;;10.36;83.19;100090.75;15776681;28;20118;-51
2024/03/03 07:50:40;;;;;;;4.55;1.92;;;;;;;10.93;80.61;100099.31;15780416;28;20068;-49
2024/03/03 07:58:20;;;;;;;3.80;3.22;;;;;;;11.41;78.89;100098.38;15791475;28;20079;-50
2024/03/03 08:06:00;;;;;;;7.00;3.63;;;;;;;11.27;79.60;100095.06;15768109;28;20348;-50
2024/03/03 08:13:43;;;;;;;2.85;2.63;;;;;;;12.11;75.70;100093.03;15789559;28;20055;-53
2024/03/03 08:21:17;;;;;;;3.63;2.85;;;;;;;12.36;73.13;100083.88;15805730;28;20102;-50
2024/03/03 08:28:52;;;;;;;3.85;2.35;;;;;;;12.93;70.51;100091.97;15787650;28;20032;-54
2024/03/03 08:36:27;;;;;;;4.03;2.05;;;;;;;13.09;70.08;100077.69;15805601;28;20123;-50
2024/03/03 08:44:02;;;;;;;4.32;2.25;;;;;;;13.59;68.15;100082.34;15771799;28;20052;-52
2024/03/03 08:51:38;;;;;;;3.75;2.60;;;;;;;13.28;68.87;100081.84;15775434;28;20063;-54
2024/03/03 08:59:14;;;;;;;2.10;1.52;;;;;;;13.88;66.70;100068.72;15776935;28;20093;-50
2024/03/03 09:06:48;;;;;;;4.07;2.40;;;;;;;14.20;65.23;100068.91;15783636;28;20048;-55
2024/03/03 09:14:25;;;;;;;0.52;0.45;;;;;;;14.48;64.14;100068.72;15791778;28;20059;-50
2024/03/03 09:21:58;;;;;;;1.60;1.50;;;;;;;14.76;62.45;100059.59;15808943;28;20048;-52
2024/03/03 09:29:33;;;;;;;1.58;1.48;;;;;;;15.65;59.01;100052.81;15807124;28;20069;-50
2024/03/03 09:37:07;;;;;;;3.35;2.17;;;;;;;15.12;60.41;100045.63;15790706;28;20036;-50
2024/03/03 09:44:44;;;;;;;7.28;1.75;;;;;;;15.22;58.05;100046.50;15756447;28;20586;-47
2024/03/03 09:52:21;;;;;;;1.27;1.17;;;;;;;16.19;56.59;100051.75;15752716;28;20086;-51
2024/03/03 09:59:57;;;;;;;7.70;3.05;;;;;;;16.73;54.13;100052.22;15767664;28;20048;-47
2024/03/03 10:07:36;;;;;;;2.78;1.42;;;;;;;16.25;53.28;100050.69;15795361;28;20040;-47
2024/03/03 10:15:13;;;;;;;0.90;0.90;;;;;;;16.17;53.41;100040.38;15819281;22;20083;-53
2024/03/03 10:22:47;;;;;;;1.83;0.77;;;;;;;16.64;54.61;100042.16;15807207;28;20051;-54
2024/03/03 10:30:22;;;;;;;0.90;0.90;;;;;;;15.79;54.07;100031.50;15766850;28;20048;-54
2024/03/03 10:37:59;;;;;;;0.77;0.77;;;;;;;15.23;55.35;100029.22;15780678;28;20127;-52
2024/03/03 10:45:36;;;;;;;1.27;1.17;;;;;;;16.07;51.89;100027.59;15785913;28;20043;-53
2024/03/03 10:53:12;;;;;;;2.45;1.42;;;;;;;17.57;50.37;100012.09;15783422;28;20094;-55
2024/03/03 11:00:48;;;;;;;1.02;0.85;;;;;;;16.93;49.71;100016.22;15794253;28;20079;-52
2024/03/03 11:08:24;;;;;;;0.80;0.20;;;;;;;18.14;46.17;100005.47;15790785;28;20059;-53
2024/03/03 11:16:03;;;;;;;1.55;1.00;;;;;;;18.70;43.30;100005.19;15786842;28;20578;-55
2024/03/03 11:23:48;;;;;;;3.15;1.33;;;;;;;17.41;44.80;100000.47;15758539;28;20070;-54
2024/03/03 11:31:28;;;;;;;0.73;0.70;;;;;;;17.63;45.37;99981.19;15763136;28;20047;-54
2024/03/03 11:39:14;;;;;;;0.63;0.63;;;;;;;17.06;46.33;99987.75;15773749;28;20260;-53
2024/03/03 11:46:50;;;;;;;0.25;0.25;;;;;;;15.67;51.49;99982.22;15787019;28;20561;-52
2024/03/03 11:54:36;;;;;;;0.93;0.90;;;;;;;15.31;53.37;99980.06;15779025;28;20052;-51
2024/03/03 12:02:14;;;;;;;0.55;0.45;;;;;;;14.76;54.59;99975.03;15774464;28;20033;-54
2024/03/03 12:09:48;;;;;;;0.57;0.50;;;;;;;14.93;53.78;99967.63;15773411;28;20584;-53
2024/03/03 12:17:23;;;;;;;1.35;0.80;;;;;;;14.21;55.25;99976.88;15784269;28;20048;-52
2024/03/03 12:25:01;;;;;;;0.15;0.08;;;;;;;14.50;52.50;99961.31;15777108;28;20063;-52
2024/03/03 12:32:37;;;;;;;2.28;2.00;;;;;;;14.50;53.79;99974.81;15776027;28;20033;-52
2024/03/03 12:40:13;;;;;;;1.38;1.17;;;;;;;14.60;54.73;99962.47;15791609;28;20071;-53
2024/03/03 12:47:55;;;;;;;0.83;0.73;;;;;;;14.50;53.83;99957.75;15765865;28;20063;-52
2024/03/03 12:55:31;;;;;;;0.10;0.10;;;;;;;14.15;54.70;99968.97;15795698;28;20488;-52
2024/03/03 13:03:08;;;;;;;1.38;1.27;;;;;;;14.72;53.62;99961.22;15773247;28;20048;-51
2024/03/03 13:10:41;;;;;;;0.52;0.43;;;;;;;14.30;55.12;99955.63;15779215;28;20040;-52
2024/03/03 13:18:16;;;;;;;1.13;1.10;;;;;;;14.14;55.29;99959.25;15760183;28;20036;-55
2024/03/03 13:25:52;;;;;;;0.30;0.20;;;;;;;14.16;55.17;99955.22;15790650;28;20496;-52
2024/03/03 13:33:28;;;;;;;1.90;0.55;;;;;;;14.25;55.21;99959.09;15802955;28;20062;-51
2024/03/03 13:41:02;;;;;;;1.67;1.27;;;;;;;14.15;54.52;99947.38;15770520;28;20046;-53
2024/03/03 13:48:37;;;;;;;1.20;1.10;;;;;;;14.16;54.66;99955.22;15775288;28;20452;-54
2024/03/03 13:56:11;;;;;;;0.05;0.05;;;;;;;14.13;55.16;99971.09;15786597;28;20052;-53
2024/03/03 14:03:46;;;;;;;3.70;1.00;;;;;;;14.01;54.33;99973.94;15786669;28;20090;-55
2024/03/03 14:11:21;;;;;;;1.00;0.82;;;;;;;14.30;54.79;99971.84;15783486;28;20052;-50
2024/03/03 14:18:58;;;;;;;0.00;0.00;;;;;;;14.42;54.23;99980.63;15777157;28;20467;-51
2024/03/03 14:26:32;;;;;;;1.20;0.82;;;;;;;14.12;53.47;99934.38;15780696;28;20035;-54
2024/03/03 14:34:14;;;;;;;0.38;0.38;;;;;;;13.82;55.46;99978.03;15786455;28;20052;-54
2024/03/03 14:41:55;;;;;;;0.15;0.15;;;;;;;13.97;54.85;99967.41;15796004;28;20128;-50
2024/03/03 14:49:32;;;;;;;0.40;0.08;;;;;;;14.07;54.03;99981.03;15782804;28;20118;-53
2024/03/03 14:57:07;;;;;;;0.63;0.63;;;;;;;14.03;53.63;99987.97;15779662;28;20035;-52
2024/03/03 15:04:43;;;;;;;0.25;0.25;;;;;;;14.03;54.12;99980.72;15791722;28;20468;-50
2024/03/03 15:12:18;;;;;;;0.20;0.20;;;;;;;14.50;53.29;99969.41;15769824;28;20468;-52
2024/03/03 15:19:56;;;;;;;0.40;0.40;;;;;;;14.25;52.44;99963.69;15730094;28;20541;-53
2024/03/03 15:27:32;;;;;;;0.30;0.30;;;;;;;13.93;53.95;99968.97;15707351;28;20033;-53
2024/03/03 15:35:09;;;;;;;2.65;0.80;;;;;;;13.70;54.17;99970.84;15711567;28;20505;-52
2024/03/03 15:42:44;;;;;;;0.47;0.47;;;;;;;13.97;54.13;99981.72;15725902;28;20040;-53
2024/03/03 15:50:21;;;;;;;0.47;0.25;;;;;;;13.70;54.21;99978.13;15709420;28;20037;-51
2024/03/03 15:57:55;;;;;;;0.17;0.17;;;;;;;13.48;54.70;99965.44;15711977;28;20029;-50
2024/03/03 16:05:32;;;;;;;0.20;0.20;;;;;;;13.82;54.41;99978.84;15699848;28;20051;-53
2024/03/03 16:13:12;;;;;;;0.55;0.55;;;;;;;14.09;54.03;99987.00;15716665;28;20053;-49
2024/03/03 16:20:48;;;;;;;4.45;2.10;;;;;;;13.26;56.79;99994.22;15898295;22;20099;-47
2024/03/03 16:28:21;;;;;;;0.00;0.00;;;;;;;13.63;56.39;99989.09;15929642;27;20036;-47
2024/03/03 16:35:57;;;;;;;0.38;0.38;;;;;;;13.15;58.02;99990.53;15923409;27;20059;-50
2024/03/03 16:43:31;;;;;;;0.68;0.65;;;;;;;12.79;59.13;99996.38;15913407;27;20043;-48
2024/03/03 16:51:07;;;;;;;0.10;0.10;;;;;;;12.54;59.89;99991.34;15896182;27;20280;-48
2024/03/03 16:58:43;;;;;;;1.10;0.88;;;;;;;13.00;58.82;99983.00;15906976;27;20042;-49
2024/03/03 17:06:19;;;;;;;1.75;1.50;;;;;;;12.34;61.07;100002.53;15883312;27;20535;-47
2024/03/03 17:13:53;;;;;;;3.83;0.73;;;;;;;12.24;61.94;100011.25;15897663;27;20127;-47
2024/03/03 17:21:28;;;;;;;0.47;0.47;;;;;;;11.95;62.64;100005.81;15900009;27;20438;-45
2024/03/03 17:29:01;;;;;;;0.52;0.47;;;;;;;11.80;63.43;100010.00;15910890;27;20054;-49
2024/03/03 17:36:37;;;;;;;1.45;1.08;;;;;;;11.56;64.27;100020.78;15917580;27;20057;-46
2024/03/03 17:44:10;;;;;;;0.22;0.22;;;;;;;11.54;64.56;100016.72;15899380;27;20074;-51
2024/03/03 17:51:45;;;;;;;0.95;0.73;;;;;;;11.83;63.79;100014.97;15904161;27;20047;-47
2024/03/03 17:59:21;;;;;;;0.47;0.47;;;;;;;11.36;65.74;100020.31;15892786;27;20138;-47
2024/03/03 18:06:56;;;;;;;3.55;2.22;;;;;;;11.14;66.99;100018.19;15889221;27;20493;-47
2024/03/03 18:14:30;;;;;;;4.03;1.90;;;;;;;11.12;67.50;100022.16;15909487;27;20043;-49
2024/03/03 18:22:05;;;;;;;1.92;1.00;;;;;;;10.90;68.92;100025.38;15892731;27;20471;-50
2024/03/03 18:29:40;;;;;;;0.88;0.85;;;;;;;10.97;68.69;100031.50;15904656;27;20058;-52
2024/03/03 18:37:15;;;;;;;12.38;2.88;;;;;;;11.41;66.80;100028.50;15913950;27;20079;-45
2024/03/03 18:44:49;;;;;;;2.08;1.55;;;;;;;11.68;65.98;100045.81;15904699;27;20067;-49
2024/03/03 18:52:25;;;;;;;1.10;1.00;;;;;;;10.91;69.11;100042.31;15890865;27;20096;-49
2024/03/03 19:00:00;;;;;;;0.50;0.45;;;;;;;11.07;68.61;100033.59;15906660;27;20047;-52
2024/03/03 19:07:39;;;;;;;2.15;1.10;;;;;;;10.55;70.85;100041.38;15881129;27;20035;-49
2024/03/03 19:15:18;;;;;;;1.38;1.27;;;;;;;10.33;72.32;100042.91;15871416;27;20043;-45
2024/03/03 19:22:54;;;;;;;0.35;0.35;;;;;;;10.30;72.70;100040.66;15890700;27;20035;-48
2024/03/03 19:30:30;;;;;;;0.65;0.65;;;;;;;10.18;73.33;100041.41;15922511;27;20126;-50
2024/03/03 19:38:05;;;;;;;1.70;1.55;;;;;;;10.18;73.63;100043.28;15896678;27;20136;-50
2024/03/03 19:45:40;;;;;;;0.20;0.20;;;;;;;10.62;72.54;100050.16;15893099;27;20411;-54
2024/03/03 19:53:15;;;;;;;0.40;0.40;;;;;;;10.38;73.25;100049.22;15922868;27;20156;-49
2024/03/03 20:00:49;;;;;;;0.70;0.70;;;;;;;10.40;73.22;100059.75;15899637;27;20118;-45
2024/03/03 20:08:24;;;;;;;0.10;0.10;;;;;;;10.48;72.56;100052.19;15898026;27;20047;-46
2024/03/03 20:15:58;;;;;;;0.95;0.95;;;;;;;10.76;71.18;100047.28;15922371;27;20499;-46
2024/03/03 20:23:36;;;;;;;1.20;1.10;;;;;;;10.69;71.39;100058.94;15921123;27;20035;-51
2024/03/03 20:31:11;;;;;;;6.60;1.27;;;;;;;10.98;70.25;100059.97;15921227;27;20043;-49
2024/03/03 20:38:45;;;;;;;0.20;0.15;;;;;;;11.06;68.66;100061.53;15918425;27;20092;-52
2024/03/03 20:46:20;;;;;;;1.75;1.27;;;;;;;11.09;68.42;100071.78;15900677;27;20047;-47
2024/03/03 20:53:56;;;;;;;0.75;0.75;;;;;;;10.88;68.10;100073.13;15920948;27;20134;-46
2024/03/03 21:01:32;;;;;;;0.28;0.28;;;;;;;10.43;69.00;100076.19;15934162;27;20040;-46
2024/03/03 21:09:13;;;;;;;0.90;0.47;;;;;;;10.13;69.88;100078.81;15914194;27;20053;-53
2024/03/03 21:16:49;;;;;;;0.00;0.00;;;;;;;9.84;70.32;100087.56;15909972;27;20039;-48
2024/03/03 21:24:26;;;;;;;1.67;0.65;;;;;;;9.55;71.19;100081.03;15900701;27;20273;-49
2024/03/03 21:32:01;;;;;;;1.15;0.85;;;;;;;9.53;71.05;100085.81;15903854;27;20487;-51
2024/03/03 21:39:36;;;;;;;0.20;0.20;;;;;;;9.44;71.30;100082.56;15921155;27;20035;-48
2024/03/03 21:47:09;;;;;;;2.80;1.95;;;;;;;9.30;71.38;100081.03;15908580;27;20096;-47
2024/03/03 21:54:47;;;;;;;0.30;0.30;;;;;;;9.07;71.66;100084.28;15887011;27;20039;-53
2024/03/03 22:02:22;;;;;;;0.30;0.30;;;;;;;8.74;72.00;100084.50;15912052;27;20373;-48
2024/03/03 22:09:58;;;;;;;3.28;2.22;;;;;;;8.65;72.16;100084.75;15885505;27;20100;-50
2024/03/03 22:17:32;;;;;;;0.70;0.70;;;;;;;8.47;72.30;100081.13;15893000;22;20036;-50
2024/03/03 22:25:08;;;;;;;0.20;0.20;;;;;;;8.37;72.70;100087.75;15798089;28;20068;-50
2024/03/03 22:32:41;;;;;;;0.50;0.50;;;;;;;8.27;73.45;100092.69;15767407;28;20477;-51
2024/03/03 22:40:17;;;;;;;2.67;2.45;;;;;;;8.17;73.39;100095.00;15798467;28;20042;-53
2024/03/03 22:47:50;;;;;;;1.13;0.75;;;;;;;7.83;73.19;100085.38;15771744;28;20047;-52
2024/03/03 22:55:28;;;;;;;0.13;0.13;;;;;;;8.00;73.33;100091.94;15798928;28;20168;-50
2024/03/03 23:03:01;;;;;;;0.10;0.10;;;;;;;7.95;75.37;100089.06;15784584;28;20453;-49
2024/03/03 23:10:37;;;;;;;5.47;2.15;;;;;;;8.15;77.85;100100.53;15779974;28;20113;-52
2024/03/03 23:18:15;;;;;;;0.32;0.32;;;;;;;8.57;75.86;100093.00;15763208;28;20040;-49
2024/03/03 23:25:50;;;;;;;0.60;0.60;;;;;;;8.36;75.21;100087.94;15743553;28;20051;-53
2024/03/03 23:33:23;;;;;;;0.63;0.60;;;;;;;8.09;75.84;100061.28;15788778;28;20420;-52
2024/03/03 23:40:59;;;;;;;0.03;0.03;;;;;;;8.15;79.46;100102.38;15756389;28;20044;-50
2024/03/03 23:48:32;;;;;;;2.92;1.75;;;;;;;8.31;80.28;100099.25;15762172;28;20036;-55
2024/03/03 23:56:13;;;;;;;2.60;1.88;;;;;;;8.43;80.71;100115.50;15750016;28;20048;-52
